Time;durP1;ratioP1;P1;durP2;ratioP2;P2;SDS_P1;SDS_P2;PMS_P1;PMS_P2;Temp;Humidity;BMP_temperature;BMP_pressure;BME280_temperature;BME280_humidity;BME280_pressure;Samples;Min_cycle;Max_cycle;Signal;HPM_P1;HPM_P2
2021/03/08 00:00:25;;;;;;;46.47;32.58;;;3.40;99.90;;;;;;5018583;28;20193;-76
2021/03/08 00:02:54;;;;;;;53.58;33.78;;;3.50;99.90;;;;;;5015028;28;20623;-76
2021/03/08 00:05:21;;;;;;;45.87;30.53;;;3.50;99.90;;;;;;5013710;28;20189;-76
2021/03/08 00:07:48;;;;;;;41.27;30.20;;;3.50;99.90;;;;;;5013945;28;20192;-76
2021/03/08 00:10:17;;;;;;;45.78;30.17;;;3.80;99.90;;;;;;5014226;28;20204;-76
2021/03/08 00:12:45;;;;;;;49.67;32.95;;;3.50;99.90;;;;;;5013849;28;20197;-76
2021/03/08 00:15:14;;;;;;;44.33;31.38;;;3.40;99.90;;;;;;4999430;28;20202;-76
2021/03/08 00:17:41;;;;;;;46.28;30.90;;;3.50;99.90;;;;;;5011563;28;20279;-76
2021/03/08 00:20:10;;;;;;;46.03;30.63;;;3.50;99.90;;;;;;5016401;28;20672;-77
2021/03/08 00:22:38;;;;;;;50.03;33.73;;;3.50;99.90;;;;;;5010871;28;20579;-76
2021/03/08 00:25:06;;;;;;;48.15;30.33;;;3.50;99.90;;;;;;5016736;28;20244;-76
2021/03/08 00:27:32;;;;;;;43.55;30.15;;;3.60;99.90;;;;;;5014101;28;20635;-76
2021/03/08 00:29:59;;;;;;;43.15;29.80;;;3.50;99.90;;;;;;5013415;28;20216;-76
2021/03/08 00:32:27;;;;;;;53.08;32.80;;;3.50;99.90;;;;;;5016189;28;20595;-77
2021/03/08 00:34:54;;;;;;;47.75;30.25;;;3.50;99.90;;;;;;5014425;28;20205;-76
2021/03/08 00:37:20;;;;;;;50.13;32.27;;;3.60;99.90;;;;;;5013584;28;20220;-76
2021/03/08 00:39:47;;;;;;;51.20;34.72;;;3.70;99.90;;;;;;5011737;28;20197;-76
2021/03/08 00:42:14;;;;;;;48.22;30.17;;;3.70;99.90;;;;;;5013874;28;20188;-76
2021/03/08 00:44:41;;;;;;;40.70;23.17;;;3.60;99.90;;;;;;5010204;28;20643;-76
2021/03/08 00:47:08;;;;;;;35.90;22.20;;;3.60;99.90;;;;;;5015347;28;20237;-76
2021/03/08 00:49:35;;;;;;;32.65;21.20;;;3.60;99.90;;;;;;5013657;28;20278;-76
2021/03/08 00:52:02;;;;;;;24.52;15.32;;;3.60;99.90;;;;;;4993882;28;20193;-76
2021/03/08 00:54:29;;;;;;;27.33;14.07;;;3.60;99.90;;;;;;5015976;28;20189;-76
2021/03/08 00:56:56;;;;;;;19.85;14.32;;;3.70;99.90;;;;;;5012282;28;20576;-76
2021/03/08 00:59:23;;;;;;;23.15;14.10;;;3.60;99.90;;;;;;5011919;28;20197;-76
2021/03/08 01:01:50;;;;;;;17.42;9.82;;;3.60;99.90;;;;;;5013636;28;20201;-76
2021/03/08 01:04:17;;;;;;;16.55;9.20;;;3.60;99.90;;;;;;4995005;28;20275;-76
2021/03/08 01:06:45;;;;;;;15.93;8.00;;;3.70;99.90;;;;;;5013816;28;20286;-76
2021/03/08 01:09:13;;;;;;;9.97;5.33;;;3.80;99.90;;;;;;4996269;28;20188;-76
2021/03/08 01:11:40;;;;;;;14.73;6.15;;;3.50;99.90;;;;;;5012868;28;20196;-76
2021/03/08 01:14:13;;;;;;;16.50;6.60;;;3.50;99.90;;;;;;5014161;28;20235;-76
2021/03/08 01:16:39;;;;;;;12.57;5.77;;;3.40;99.90;;;;;;5011588;28;20244;-76
2021/03/08 01:19:06;;;;;;;17.42;5.60;;;3.40;99.90;;;;;;5012732;28;20730;-76
2021/03/08 01:21:33;;;;;;;9.97;5.67;;;3.40;99.90;;;;;;5001629;28;20197;-76
2021/03/08 01:24:01;;;;;;;13.47;5.43;;;3.40;99.90;;;;;;5012780;28;20192;-76
2021/03/08 01:26:27;;;;;;;23.23;6.30;;;3.30;99.90;;;;;;5014589;28;20280;-76
2021/03/08 01:28:54;;;;;;;10.23;4.30;;;3.40;99.90;;;;;;5013206;28;20205;-76
2021/03/08 01:31:21;;;;;;;17.02;4.68;;;3.30;99.90;;;;;;5011883;28;20763;-76
2021/03/08 01:33:51;;;;;;;15.63;4.43;;;3.40;99.90;;;;;;5014160;28;20531;-76
2021/03/08 01:36:19;;;;;;;18.33;4.97;;;3.30;99.90;;;;;;5016032;28;20235;-76
2021/03/08 01:38:46;;;;;;;19.27;5.30;;;3.30;99.90;;;;;;5010868;28;20274;-76
2021/03/08 01:41:14;;;;;;;13.00;4.88;;;3.30;99.90;;;;;;5004443;28;20284;-76
2021/03/08 01:43:40;;;;;;;13.95;5.22;;;3.30;99.90;;;;;;5007860;28;20300;-76
2021/03/08 01:46:08;;;;;;;15.17;4.97;;;3.20;99.90;;;;;;5007324;28;20251;-76
2021/03/08 01:48:35;;;;;;;14.25;4.65;;;3.30;99.90;;;;;;5013564;28;20204;-76
2021/03/08 01:51:02;;;;;;;12.83;4.97;;;3.30;99.90;;;;;;5009624;28;20201;-76
2021/03/08 01:53:29;;;;;;;10.57;4.67;;;3.20;99.90;;;;;;5012894;28;20231;-76
2021/03/08 01:55:56;;;;;;;14.13;4.47;;;3.30;99.90;;;;;;5006244;28;20221;-76
2021/03/08 01:58:24;;;;;;;13.88;4.68;;;3.30;99.90;;;;;;5006075;28;20236;-76
2021/03/08 02:00:51;;;;;;;19.63;5.57;;;3.20;99.90;;;;;;5008988;28;20228;-76
2021/03/08 02:03:18;;;;;;;16.55;4.72;;;3.50;99.90;;;;;;5000877;28;20201;-76
2021/03/08 02:05:47;;;;;;;16.27;6.43;;;3.20;99.90;;;;;;5010396;28;20220;-76
2021/03/08 02:08:17;;;;;;;13.33;4.23;;;3.20;99.90;;;;;;5012203;28;20604;-76
2021/03/08 02:10:44;;;;;;;12.63;4.43;;;3.10;99.90;;;;;;5003524;28;20234;-76
2021/03/08 02:13:39;;;;;;;14.45;4.18;;;3.10;99.90;;;;;;5010205;28;20201;-76
2021/03/08 02:16:12;;;;;;;12.90;3.90;;;3.10;99.90;;;;;;5011194;28;20228;-76
2021/03/08 02:18:44;;;;;;;11.98;3.72;;;3.10;99.90;;;;;;5008594;28;20612;-76
2021/03/08 02:21:31;;;;;;;12.20;3.65;;;3.10;99.90;;;;;;5008850;28;20254;-77
2021/03/08 02:24:33;;;;;;;9.80;4.03;;;3.10;99.90;;;;;;5008158;28;20204;-76
2021/03/08 02:27:03;;;;;;;16.40;4.43;;;3.00;99.90;;;;;;5011347;28;20218;-76
2021/03/08 02:29:56;;;;;;;12.60;4.10;;;3.00;99.90;;;;;;5010337;28;20197;-76
2021/03/08 02:32:31;;;;;;;13.82;4.80;;;3.00;99.90;;;;;;5009473;28;20200;-76
2021/03/08 02:35:05;;;;;;;16.38;6.00;;;3.00;99.90;;;;;;5016578;28;20235;-76
2021/03/08 02:37:35;;;;;;;11.45;3.72;;;3.00;99.90;;;;;;5015699;28;20255;-76
2021/03/08 02:40:09;;;;;;;18.50;5.47;;;3.10;99.90;;;;;;5011968;28;20192;-76
2021/03/08 02:42:38;;;;;;;17.47;5.23;;;3.20;99.90;;;;;;5013025;28;20212;-76
2021/03/08 02:45:07;;;;;;;10.27;3.72;;;3.20;99.90;;;;;;5010565;28;20235;-76
2021/03/08 02:47:40;;;;;;;16.67;3.58;;;3.20;99.90;;;;;;5010659;28;20263;-76
2021/03/08 02:50:14;;;;;;;21.85;4.65;;;3.10;99.90;;;;;;5015402;28;20205;-76
2021/03/08 02:52:46;;;;;;;11.67;3.70;;;3.10;99.90;;;;;;5005940;28;20461;-76
2021/03/08 02:55:15;;;;;;;11.43;3.95;;;3.10;99.90;;;;;;5009812;28;20288;-76
2021/03/08 02:57:43;;;;;;;13.75;3.60;;;3.20;99.90;;;;;;5010188;28;20224;-76
2021/03/08 03:00:12;;;;;;;28.55;5.40;;;3.30;99.90;;;;;;5008625;28;20204;-76
2021/03/08 03:02:41;;;;;;;12.63;5.40;;;3.30;99.90;;;;;;5005098;28;20212;-76
2021/03/08 03:05:12;;;;;;;11.98;3.45;;;3.30;99.90;;;;;;5008407;28;20278;-76
2021/03/08 03:07:43;;;;;;;13.18;4.85;;;3.20;99.90;;;;;;5007037;28;20220;-76
2021/03/08 03:10:11;;;;;;;9.32;4.50;;;3.30;99.90;;;;;;5009456;28;20679;-76
2021/03/08 03:12:39;;;;;;;18.13;4.18;;;3.30;99.90;;;;;;5014284;28;20594;-76
2021/03/08 03:15:08;;;;;;;13.20;4.43;;;3.20;99.90;;;;;;5008386;28;20703;-76
2021/03/08 03:17:37;;;;;;;14.87;5.33;;;3.20;99.90;;;;;;5005147;28;20312;-76
2021/03/08 03:20:10;;;;;;;14.00;4.93;;;3.20;99.90;;;;;;5013227;28;20233;-76
2021/03/08 03:22:38;;;;;;;13.40;4.78;;;3.20;99.90;;;;;;5010233;28;20568;-76
2021/03/08 03:25:06;;;;;;;12.98;4.30;;;3.10;99.90;;;;;;5013359;28;20260;-76
2021/03/08 03:27:34;;;;;;;9.70;3.88;;;3.10;99.90;;;;;;5008428;28;20225;-76
2021/03/08 03:30:01;;;;;;;12.68;4.50;;;3.10;99.90;;;;;;5010386;28;20188;-76
2021/03/08 03:32:29;;;;;;;18.93;5.33;;;3.10;99.90;;;;;;5009988;28;20208;-76
2021/03/08 03:34:56;;;;;;;11.30;4.20;;;3.10;99.90;;;;;;5011129;28;20284;-76
2021/03/08 03:37:26;;;;;;;11.15;5.57;;;3.20;99.90;;;;;;5008420;28;20227;-76
2021/03/08 03:39:54;;;;;;;13.45;4.95;;;3.10;99.90;;;;;;5008374;28;20209;-76
2021/03/08 03:42:21;;;;;;;13.07;5.68;;;3.00;99.90;;;;;;5009363;28;20562;-76
2021/03/08 03:44:47;;;;;;;10.02;4.32;;;3.20;99.90;;;;;;5013180;28;20274;-76
2021/03/08 03:47:15;;;;;;;10.32;4.38;;;3.00;99.90;;;;;;5043910;23;20224;-77
2021/03/08 03:49:42;;;;;;;17.33;5.05;;;2.90;99.90;;;;;;5026243;28;20548;-76
2021/03/08 03:52:09;;;;;;;9.73;4.07;;;3.00;99.90;;;;;;5018106;28;20698;-77
2021/03/08 03:54:37;;;;;;;12.70;5.20;;;2.90;99.90;;;;;;5024092;28;20232;-77
2021/03/08 03:57:07;;;;;;;16.48;4.50;;;2.80;99.90;;;;;;5011322;28;20223;-77
2021/03/08 03:59:41;;;;;;;16.80;4.87;;;2.80;99.90;;;;;;5001298;28;20197;-76
2021/03/08 04:02:14;;;;;;;13.40;5.07;;;2.70;99.90;;;;;;5003456;28;20259;-76
2021/03/08 04:04:49;;;;;;;13.07;4.97;;;2.60;99.90;;;;;;5001317;28;20200;-76
2021/03/08 04:07:17;;;;;;;18.35;6.15;;;2.90;99.90;;;;;;5003259;28;20228;-76
2021/03/08 04:09:48;;;;;;;18.07;5.83;;;2.40;99.90;;;;;;5006054;28;20673;-77
2021/03/08 04:12:18;;;;;;;17.55;6.60;;;2.40;99.90;;;;;;4994958;28;20236;-77
2021/03/08 04:14:48;;;;;;;13.32;4.80;;;2.30;99.90;;;;;;5003718;28;20199;-76
2021/03/08 04:17:16;;;;;;;10.57;4.90;;;2.20;99.90;;;;;;5000765;28;20244;-76
2021/03/08 04:19:45;;;;;;;11.45;5.72;;;2.20;99.90;;;;;;5005817;28;20221;-76
2021/03/08 04:22:12;;;;;;;9.60;5.57;;;2.10;99.90;;;;;;5000400;28;20284;-75
2021/03/08 04:24:41;;;;;;;13.63;5.50;;;2.10;99.90;;;;;;5000813;28;20194;-76
2021/03/08 04:27:12;;;;;;;11.25;5.18;;;2.10;99.90;;;;;;5002671;28;20722;-76
2021/03/08 04:29:40;;;;;;;13.98;4.75;;;2.10;99.90;;;;;;5002224;28;20196;-76
2021/03/08 04:32:08;;;;;;;9.18;5.03;;;2.00;99.90;;;;;;5005506;28;20217;-76
2021/03/08 04:34:35;;;;;;;9.55;5.40;;;1.90;99.90;;;;;;5005224;28;20201;-76
2021/03/08 04:37:03;;;;;;;18.50;5.90;;;1.90;99.90;;;;;;5001666;28;20452;-76
2021/03/08 04:39:33;;;;;;;22.63;6.37;;;1.90;99.90;;;;;;5005860;28;20196;-76
2021/03/08 04:42:01;;;;;;;11.67;4.60;;;1.90;99.90;;;;;;5003370;28;20256;-75
2021/03/08 04:44:30;;;;;;;12.38;5.03;;;1.80;99.90;;;;;;4998730;28;20206;-75
2021/03/08 04:46:57;;;;;;;13.13;5.68;;;1.80;99.90;;;;;;5001084;28;20224;-75
2021/03/08 04:49:24;;;;;;;14.80;6.03;;;1.80;99.90;;;;;;4998538;28;20188;-75
2021/03/08 04:51:53;;;;;;;15.40;5.75;;;1.70;99.90;;;;;;5003032;28;20258;-74
2021/03/08 04:54:21;;;;;;;14.23;4.57;;;1.70;99.90;;;;;;4988919;28;20255;-75
2021/03/08 04:56:48;;;;;;;12.50;5.00;;;1.70;99.90;;;;;;4994197;28;20225;-75
2021/03/08 04:59:15;;;;;;;11.97;5.27;;;1.60;99.90;;;;;;4992576;28;20244;-75
2021/03/08 05:01:45;;;;;;;15.10;6.27;;;1.60;99.90;;;;;;4991253;28;20240;-76
2021/03/08 05:04:14;;;;;;;8.00;4.38;;;1.60;99.90;;;;;;4994586;28;20212;-76
2021/03/08 05:06:42;;;;;;;12.90;5.72;;;1.40;99.90;;;;;;4996816;28;20220;-75
2021/03/08 05:09:10;;;;;;;12.20;5.32;;;1.40;99.90;;;;;;5000685;28;20189;-76
2021/03/08 05:11:38;;;;;;;14.27;5.70;;;1.30;99.90;;;;;;4992694;28;20278;-75
2021/03/08 05:14:07;;;;;;;20.07;5.33;;;1.40;99.90;;;;;;4992812;28;20622;-75
2021/03/08 05:16:37;;;;;;;19.77;5.33;;;1.30;99.90;;;;;;5006119;28;20259;-76
2021/03/08 05:19:05;;;;;;;14.27;5.70;;;1.30;99.90;;;;;;5014107;28;20201;-76
2021/03/08 05:21:34;;;;;;;13.40;5.88;;;1.20;99.90;;;;;;5016722;28;20198;-77
2021/03/08 05:24:01;;;;;;;11.63;5.73;;;1.10;99.90;;;;;;5014262;28;20206;-75
2021/03/08 05:26:29;;;;;;;23.83;6.63;;;1.10;99.90;;;;;;5011991;28;20587;-77
2021/03/08 05:28:56;;;;;;;11.90;5.43;;;1.00;99.90;;;;;;5020690;28;20213;-76
2021/03/08 05:31:27;;;;;;;11.35;5.80;;;1.00;99.90;;;;;;5018409;28;20197;-77
2021/03/08 05:33:58;;;;;;;13.70;6.68;;;1.00;99.90;;;;;;4994006;28;20296;-76
2021/03/08 05:36:27;;;;;;;15.88;5.95;;;1.10;99.90;;;;;;4993436;28;20225;-78
2021/03/08 05:38:55;;;;;;;14.00;6.87;;;1.10;99.90;;;;;;5006643;28;20633;-76
2021/03/08 05:41:28;;;;;;;13.48;5.93;;;1.10;99.90;;;;;;4998450;28;20189;-76
2021/03/08 05:43:58;;;;;;;19.40;6.70;;;1.10;99.90;;;;;;4998347;28;20619;-74
2021/03/08 05:46:34;;;;;;;12.75;6.20;;;1.00;99.90;;;;;;4992770;28;20221;-75
2021/03/08 05:49:27;;;;;;;17.63;7.43;;;1.00;99.90;;;;;;5004203;28;20184;-76
2021/03/08 05:52:18;;;;;;;12.97;6.73;;;1.00;99.90;;;;;;4994539;28;20205;-76
2021/03/08 05:55:23;;;;;;;16.13;6.90;;;1.10;99.90;;;;;;5001664;28;20205;-76
2021/03/08 05:58:10;;;;;;;13.03;5.63;;;1.00;99.90;;;;;;5001270;28;20213;-76
2021/03/08 06:00:54;;;;;;;12.10;5.43;;;1.10;99.90;;;;;;4998451;28;20196;-75
2021/03/08 06:03:37;;;;;;;21.20;8.27;;;1.00;99.90;;;;;;5002912;28;20225;-76
2021/03/08 06:06:43;;;;;;;11.75;6.50;;;0.90;99.90;;;;;;4999470;28;20282;-78
2021/03/08 06:09:31;;;;;;;15.43;7.28;;;1.00;99.90;;;;;;5001280;28;20217;-74
2021/03/08 06:12:06;;;;;;;12.97;6.90;;;1.00;99.90;;;;;;4981362;28;20212;-76
2021/03/08 06:14:40;;;;;;;13.53;6.77;;;1.00;99.90;;;;;;5000296;28;20649;-76
2021/03/08 06:17:08;;;;;;;14.95;7.47;;;1.00;99.90;;;;;;4998431;28;20204;-75
2021/03/08 06:19:37;;;;;;;19.40;7.28;;;1.10;99.90;;;;;;5012356;28;20282;-76
2021/03/08 06:22:07;;;;;;;12.80;7.20;;;1.00;99.90;;;;;;5014864;28;20203;-77
2021/03/08 06:24:37;;;;;;;10.37;6.77;;;1.00;99.90;;;;;;5015232;28;20203;-76
2021/03/08 06:27:06;;;;;;;14.57;7.47;;;1.00;99.90;;;;;;5014585;28;20307;-77
2021/03/08 06:29:34;;;;;;;15.20;7.03;;;1.10;99.90;;;;;;5007804;28;20197;-77
2021/03/08 06:32:03;;;;;;;13.10;5.90;;;1.10;99.90;;;;;;4981209;28;20228;-76
2021/03/08 06:34:30;;;;;;;20.13;7.67;;;1.20;99.90;;;;;;5001412;28;20587;-76
2021/03/08 06:37:02;;;;;;;12.20;6.53;;;1.20;99.90;;;;;;5012801;28;20295;-76
2021/03/08 06:39:32;;;;;;;16.07;7.47;;;1.20;99.90;;;;;;5015629;28;20279;-79
2021/03/08 06:42:00;;;;;;;17.10;6.88;;;1.10;99.90;;;;;;5015187;28;20197;-78
2021/03/08 06:44:26;;;;;;;16.83;6.80;;;1.20;99.90;;;;;;5006105;28;20193;-78
2021/03/08 06:46:54;;;;;;;12.98;5.93;;;1.20;99.90;;;;;;4986096;28;20230;-78
2021/03/08 06:49:21;;;;;;;13.17;6.90;;;1.30;99.90;;;;;;5010200;28;20288;-77
2021/03/08 06:52:05;;;;;;;15.05;7.60;;;1.30;99.90;;;;;;5001618;28;20212;-75
2021/03/08 06:54:33;;;;;;;18.73;6.57;;;1.40;99.90;;;;;;5000988;28;20209;-77
2021/03/08 06:57:00;;;;;;;14.60;6.85;;;1.40;99.90;;;;;;5002645;28;20232;-76
2021/03/08 06:59:27;;;;;;;12.75;6.32;;;1.50;99.90;;;;;;5015048;28;20196;-76
2021/03/08 07:01:54;;;;;;;13.47;6.73;;;1.60;99.90;;;;;;5014093;28;20196;-76
2021/03/08 07:04:23;;;;;;;12.90;6.32;;;1.60;99.90;;;;;;5014450;28;20205;-77
2021/03/08 07:07:01;;;;;;;12.85;6.00;;;1.60;99.90;;;;;;5014596;28;20221;-79
2021/03/08 07:09:29;;;;;;;11.18;6.15;;;1.60;99.90;;;;;;5015560;28;20197;-76
2021/03/08 07:12:07;;;;;;;22.38;6.60;;;1.60;99.90;;;;;;5013474;28;20288;-76
2021/03/08 07:14:35;;;;;;;13.60;5.90;;;1.60;99.90;;;;;;5015314;28;20283;-76
2021/03/08 07:17:01;;;;;;;12.63;5.88;;;1.60;99.90;;;;;;4993638;28;20295;-78
2021/03/08 07:19:28;;;;;;;13.40;6.40;;;1.70;99.90;;;;;;5013746;28;20205;-76
2021/03/08 07:21:56;;;;;;;13.95;6.15;;;1.70;99.90;;;;;;5014645;28;20196;-75
2021/03/08 07:24:22;;;;;;;11.13;5.95;;;1.70;99.90;;;;;;5014288;28;20733;-77
2021/03/08 07:26:54;;;;;;;11.52;6.15;;;1.90;99.90;;;;;;5014294;28;20227;-77
2021/03/08 07:29:23;;;;;;;10.50;5.30;;;1.80;99.90;;;;;;5007167;28;20227;-79
2021/03/08 07:31:52;;;;;;;21.90;7.23;;;1.90;99.90;;;;;;5001907;28;20208;-76
2021/03/08 07:34:20;;;;;;;12.77;7.03;;;2.00;99.90;;;;;;5001932;28;20240;-76
2021/03/08 07:36:57;;;;;;;13.45;6.25;;;2.00;99.90;;;;;;4999051;28;20312;-77
2021/03/08 07:39:26;;;;;;;13.73;6.50;;;2.10;99.90;;;;;;5014087;28;20192;-77
2021/03/08 07:41:55;;;;;;;11.98;5.65;;;2.10;99.90;;;;;;5012263;28;20224;-77
2021/03/08 07:44:24;;;;;;;12.45;6.72;;;2.20;99.90;;;;;;5003824;28;20193;-77
2021/03/08 07:46:52;;;;;;;9.65;5.15;;;2.50;99.90;;;;;;4994061;28;20220;-77
2021/03/08 07:49:32;;;;;;;19.77;6.45;;;2.40;99.90;;;;;;4994196;28;20193;-77
2021/03/08 07:52:05;;;;;;;10.65;6.20;;;2.50;99.90;;;;;;5003710;28;20209;-77
2021/03/08 07:54:53;;;;;;;11.80;5.47;;;2.50;99.90;;;;;;5000648;28;20197;-82
2021/03/08 07:57:21;;;;;;;11.60;5.70;;;2.50;99.90;;;;;;5001039;28;20221;-81
2021/03/08 07:59:49;;;;;;;10.85;6.38;;;2.60;99.90;;;;;;5015067;28;20220;-81
2021/03/08 08:02:16;;;;;;;15.20;6.70;;;2.60;99.90;;;;;;5017936;28;20279;-80
2021/03/08 08:04:43;;;;;;;9.45;5.45;;;2.70;99.90;;;;;;5002280;28;20593;-82
2021/03/08 08:07:13;;;;;;;19.27;6.40;;;2.80;99.90;;;;;;5006354;28;20236;-78
2021/03/08 08:09:43;;;;;;;10.17;5.30;;;2.80;99.90;;;;;;5004962;28;20206;-82
2021/03/08 08:12:13;;;;;;;13.10;5.67;;;2.80;99.90;;;;;;5002103;28;20186;-82
2021/03/08 08:14:41;;;;;;;12.25;5.65;;;2.80;99.90;;;;;;5001224;28;20202;-81
2021/03/08 08:17:12;;;;;;;11.30;5.03;;;2.80;99.90;;;;;;4983445;28;20655;-81
2021/03/08 08:20:08;;;;;;;10.40;5.38;;;3.10;99.90;;;;;;5149716;27;20554;-38
2021/03/08 08:22:35;;;;;;;7.97;4.65;;;3.10;99.90;;;;;;5149394;27;20261;-38
2021/03/08 08:25:04;;;;;;;9.27;4.45;;;3.30;99.90;;;;;;5143004;27;20682;-37
2021/03/08 08:27:33;;;;;;;13.45;5.03;;;3.40;99.90;;;;;;5128186;28;20214;-38
2021/03/08 08:30:00;;;;;;;9.85;4.55;;;3.40;99.90;;;;;;5130838;27;20184;-37
2021/03/08 08:32:47;;;;;;;6.00;4.80;;;3.50;99.90;;;;;;5125091;28;20204;-39
2021/03/08 08:35:18;;;;;;;11.82;5.50;;;3.50;99.90;;;;;;5128567;28;20213;-40
2021/03/08 08:38:18;;;;;;;12.05;5.63;;;3.50;99.90;;;;;;5112391;28;20189;-39
2021/03/08 08:40:45;;;;;;;12.48;5.25;;;3.60;99.90;;;;;;5107802;28;20204;-40
2021/03/08 08:43:22;;;;;;;11.30;6.03;;;3.80;99.90;;;;;;5114521;28;20670;-41
2021/03/08 08:45:51;;;;;;;8.70;4.35;;;3.90;99.90;;;;;;5127407;28;20247;-40
2021/03/08 08:48:19;;;;;;;6.63;4.30;;;3.90;99.90;;;;;;5127996;27;20196;-40
2021/03/08 08:50:49;;;;;;;10.93;3.88;;;4.00;99.90;;;;;;5128176;28;20185;-41
2021/03/08 08:53:39;;;;;;;10.73;3.80;;;4.20;99.90;;;;;;5130971;27;20231;-41
2021/03/08 08:56:07;;;;;;;10.32;4.05;;;4.40;99.90;;;;;;5127566;27;20217;-39
2021/03/08 08:58:43;;;;;;;11.10;5.22;;;4.50;99.90;;;;;;5127799;27;20767;-39
2021/03/08 09:01:23;;;;;;;7.70;4.03;;;4.40;99.90;;;;;;5125430;28;20189;-41
2021/03/08 09:03:53;;;;;;;9.40;3.72;;;4.30;99.90;;;;;;5127057;27;20220;-40
2021/03/08 09:06:49;;;;;;;11.27;5.88;;;4.30;99.90;;;;;;5127460;27;20217;-40
2021/03/08 09:09:19;;;;;;;11.82;5.88;;;4.40;99.90;;;;;;5123010;27;20193;-41
2021/03/08 09:11:48;;;;;;;8.30;5.50;;;4.30;99.90;;;;;;5127505;27;20193;-39
2021/03/08 09:14:26;;;;;;;12.02;5.43;;;4.10;99.90;;;;;;5120997;28;20200;-39
2021/03/08 09:17:07;;;;;;;9.48;4.63;;;4.40;99.90;;;;;;5127625;27;20286;-40
2021/03/08 09:19:34;;;;;;;14.30;5.50;;;4.50;99.90;;;;;;5127510;27;20212;-39
2021/03/08 09:22:34;;;;;;;11.43;5.33;;;4.60;99.90;;;;;;5127589;28;20197;-43
2021/03/08 09:25:12;;;;;;;12.35;4.63;;;4.70;99.90;;;;;;5123532;27;20228;-40
2021/03/08 09:27:40;;;;;;;6.30;3.47;;;4.90;99.90;;;;;;5127618;28;20189;-42
2021/03/08 09:30:09;;;;;;;9.10;4.70;;;5.20;99.90;;;;;;5120970;28;20254;-42
2021/03/08 09:32:45;;;;;;;5.25;3.90;;;5.70;99.90;;;;;;5110591;28;20668;-39
2021/03/08 09:35:13;;;;;;;8.32;4.10;;;5.80;99.90;;;;;;5112839;28;20209;-40
2021/03/08 09:37:43;;;;;;;12.27;5.32;;;5.70;99.90;;;;;;5113594;28;20193;-40
2021/03/08 09:40:15;;;;;;;5.47;3.17;;;5.70;99.90;;;;;;5113382;27;20678;-39
2021/03/08 09:42:41;;;;;;;7.25;3.60;;;5.50;99.90;;;;;;5112851;28;20272;-41
2021/03/08 09:45:19;;;;;;;9.43;3.50;;;5.40;99.90;;;;;;5112442;28;20213;-39
2021/03/08 09:47:46;;;;;;;12.65;3.92;;;5.20;99.90;;;;;;5102851;28;20225;-41
2021/03/08 09:50:17;;;;;;;8.23;3.70;;;5.10;99.90;;;;;;5113207;27;20308;-42
2021/03/08 09:52:46;;;;;;;4.45;2.67;;;5.30;99.90;;;;;;5113326;27;20201;-39
2021/03/08 09:55:21;;;;;;;7.85;2.95;;;5.40;99.90;;;;;;5112294;27;20733;-40
2021/03/08 09:57:48;;;;;;;8.60;3.65;;;5.50;99.90;;;;;;5112773;27;20192;-40
2021/03/08 10:00:17;;;;;;;9.02;4.10;;;5.70;99.90;;;;;;5107328;27;20280;-39
2021/03/08 10:02:45;;;;;;;4.55;2.38;;;5.90;99.90;;;;;;5111713;28;20565;-42
2021/03/08 10:05:14;;;;;;;6.78;3.20;;;6.10;99.90;;;;;;5111974;28;20205;-41
2021/03/08 10:07:54;;;;;;;6.20;3.75;;;6.30;99.90;;;;;;5108439;28;20193;-40
2021/03/08 10:10:23;;;;;;;11.00;4.10;;;6.40;99.90;;;;;;5111985;28;20189;-40
2021/03/08 10:13:00;;;;;;;7.53;3.20;;;6.50;99.90;;;;;;5112301;28;20189;-42
2021/03/08 10:15:37;;;;;;;11.25;3.83;;;6.70;99.90;;;;;;5112887;28;20240;-40
2021/03/08 10:18:04;;;;;;;5.82;3.33;;;6.80;99.90;;;;;;5112657;28;20288;-40
2021/03/08 10:20:32;;;;;;;7.90;3.10;;;6.90;99.90;;;;;;5112238;27;20504;-42
2021/03/08 10:22:59;;;;;;;6.80;3.10;;;7.10;99.90;;;;;;5111893;28;20197;-41
2021/03/08 10:25:28;;;;;;;7.68;2.70;;;7.00;99.90;;;;;;5110103;27;20224;-40
2021/03/08 10:27:56;;;;;;;5.45;2.85;;;7.20;99.90;;;;;;5109339;27;20204;-42
2021/03/08 10:30:26;;;;;;;10.82;3.60;;;7.30;99.90;;;;;;5111980;27;20197;-41
2021/03/08 10:32:56;;;;;;;8.40;2.45;;;7.40;99.90;;;;;;5106706;27;20557;-40
2021/03/08 10:35:25;;;;;;;8.63;2.65;;;7.70;99.90;;;;;;5107690;27;20284;-42
2021/03/08 10:37:54;;;;;;;4.65;2.83;;;7.80;99.90;;;;;;5107213;27;20199;-41
2021/03/08 10:40:22;;;;;;;4.38;3.00;;;8.60;99.90;;;;;;5106230;28;20251;-40
2021/03/08 10:42:50;;;;;;;4.32;3.20;;;11.80;99.90;;;;;;5107707;28;20182;-41
2021/03/08 10:45:18;;;;;;;6.18;3.28;;;15.30;99.90;;;;;;5107579;27;20247;-42
2021/03/08 10:48:03;;;;;;;5.97;2.97;;;18.00;99.90;;;;;;5109612;27;20198;-40
2021/03/08 10:50:42;;;;;;;5.25;1.98;;;19.30;94.40;;;;;;5109787;27;20194;-41
2021/03/08 10:53:09;;;;;;;2.00;1.80;;;20.80;87.50;;;;;;5115861;27;20196;-41
2021/03/08 10:55:36;;;;;;;3.58;1.90;;;20.50;75.50;;;;;;5117052;27;20205;-40
2021/03/08 10:58:04;;;;;;;6.63;2.38;;;17.80;79.40;;;;;;5112931;27;20278;-41
2021/03/08 11:00:31;;;;;;;2.22;1.85;;;19.50;77.80;;;;;;5113854;27;20194;-41
2021/03/08 11:03:00;;;;;;;3.63;2.30;;;20.40;78.50;;;;;;5102275;28;20211;-42
2021/03/08 11:05:27;;;;;;;4.40;2.28;;;21.10;74.70;;;;;;5109026;28;20269;-41
2021/03/08 11:07:54;;;;;;;4.53;2.33;;;21.50;70.70;;;;;;5111235;28;20335;-41
2021/03/08 11:10:35;;;;;;;5.20;2.38;;;21.90;68.70;;;;;;5111086;28;20269;-41
2021/03/08 11:13:04;;;;;;;13.85;2.80;;;22.50;69.70;;;;;;5111815;28;20220;-42
2021/03/08 11:15:31;;;;;;;6.72;2.13;;;22.40;67.50;;;;;;5110111;28;20551;-41
2021/03/08 11:17:58;;;;;;;2.88;2.05;;;21.70;64.80;;;;;;5111584;28;20197;-41
2021/03/08 11:20:28;;;;;;;4.75;2.55;;;21.80;64.00;;;;;;5111624;28;20224;-41
2021/03/08 11:22:57;;;;;;;2.78;1.63;;;21.80;63.90;;;;;;5111344;28;20675;-42
2021/03/08 11:25:38;;;;;;;2.70;1.67;;;21.20;62.60;;;;;;5111502;28;20285;-41
2021/03/08 11:28:10;;;;;;;3.20;1.75;;;21.30;61.80;;;;;;5109104;28;20280;-41
2021/03/08 11:30:38;;;;;;;4.10;1.90;;;21.40;61.60;;;;;;5095829;27;20462;-41
2021/03/08 11:33:07;;;;;;;3.47;2.03;;;21.20;61.30;;;;;;5110448;28;20562;-42
2021/03/08 11:35:35;;;;;;;5.97;2.03;;;20.60;62.10;;;;;;5110926;28;20644;-40
2021/03/08 11:38:05;;;;;;;4.78;2.08;;;19.50;62.60;;;;;;5110975;28;20618;-41
2021/03/08 11:40:32;;;;;;;2.95;1.95;;;20.00;63.00;;;;;;5111116;28;20242;-43
2021/03/08 11:43:00;;;;;;;4.53;2.35;;;19.80;61.70;;;;;;5128580;27;20676;-41
2021/03/08 11:45:30;;;;;;;3.28;1.73;;;19.40;62.40;;;;;;5121959;27;20211;-41
2021/03/08 11:47:59;;;;;;;3.90;1.60;;;19.10;61.30;;;;;;5110304;28;20253;-40
2021/03/08 11:50:29;;;;;;;3.53;1.90;;;16.90;61.60;;;;;;5110725;28;20224;-41
2021/03/08 11:52:56;;;;;;;3.40;2.45;;;15.20;65.70;;;;;;5110842;28;20199;-41
2021/03/08 11:55:22;;;;;;;2.72;1.90;;;14.10;69.10;;;;;;5110904;28;20212;-42
2021/03/08 11:57:50;;;;;;;3.13;2.45;;;12.90;67.80;;;;;;5110586;27;20563;-41
2021/03/08 12:00:19;;;;;;;2.05;1.85;;;12.00;70.60;;;;;;5107002;28;20202;-42
2021/03/08 12:02:48;;;;;;;4.00;2.00;;;11.60;72.90;;;;;;5099332;28;20214;-40
2021/03/08 12:05:14;;;;;;;4.15;1.98;;;11.60;74.20;;;;;;5110706;28;20275;-40
2021/03/08 12:07:42;;;;;;;3.03;2.28;;;11.50;74.60;;;;;;5111822;28;20197;-43
2021/03/08 12:10:11;;;;;;;2.55;1.92;;;11.30;75.10;;;;;;5097639;28;20220;-41
2021/03/08 12:12:37;;;;;;;3.00;2.20;;;11.50;76.60;;;;;;5110935;28;20609;-42
2021/03/08 12:15:06;;;;;;;4.10;2.03;;;12.10;74.30;;;;;;5101587;28;20294;-41
2021/03/08 12:17:33;;;;;;;2.45;1.58;;;12.80;72.30;;;;;;5090894;28;20284;-43
2021/03/08 12:20:01;;;;;;;3.45;1.95;;;12.90;71.70;;;;;;5090410;28;20363;-41
2021/03/08 12:22:28;;;;;;;2.13;1.75;;;12.80;72.70;;;;;;5090733;28;20205;-43
2021/03/08 12:24:55;;;;;;;2.08;1.88;;;12.70;73.50;;;;;;5090176;28;20553;-40
2021/03/08 12:27:22;;;;;;;2.88;1.85;;;12.40;74.20;;;;;;5100864;28;20697;-42
2021/03/08 12:29:49;;;;;;;3.45;1.95;;;12.00;75.30;;;;;;5111125;28;20192;-41
2021/03/08 12:32:16;;;;;;;1.73;1.60;;;11.70;76.90;;;;;;5110758;28;20197;-44
2021/03/08 12:34:42;;;;;;;3.78;1.73;;;11.60;77.00;;;;;;5099501;28;20220;-41
2021/03/08 12:37:10;;;;;;;4.15;1.90;;;11.30;78.20;;;;;;5105338;28;20264;-42
2021/03/08 12:39:36;;;;;;;2.92;2.10;;;11.00;78.40;;;;;;5109929;28;20231;-44
2021/03/08 12:42:21;;;;;;;3.53;2.00;;;10.70;79.50;;;;;;5111427;28;20215;-42
2021/03/08 12:44:48;;;;;;;2.30;2.10;;;10.80;80.00;;;;;;5099464;28;20244;-42
2021/03/08 12:47:15;;;;;;;2.83;2.58;;;11.00;80.50;;;;;;5100050;28;20194;-41
2021/03/08 12:49:41;;;;;;;5.88;2.33;;;11.30;81.00;;;;;;5098952;28;20216;-43
2021/03/08 12:52:08;;;;;;;4.47;1.83;;;11.40;78.20;;;;;;5110245;28;20208;-41
2021/03/08 12:54:36;;;;;;;4.38;2.40;;;11.40;75.30;;;;;;5108842;28;20203;-42
2021/03/08 12:57:04;;;;;;;4.93;2.33;;;11.30;79.10;;;;;;5110678;28;20284;-41
2021/03/08 12:59:31;;;;;;;3.22;1.63;;;11.50;79.10;;;;;;5111376;28;20251;-43
2021/03/08 13:01:57;;;;;;;5.15;2.58;;;11.70;77.80;;;;;;5100469;28;20204;-42
2021/03/08 13:04:24;;;;;;;6.05;1.90;;;11.90;78.20;;;;;;5098971;27;20212;-41